createdAt,value
2023-03-15T00:00:19.874Z,58.07
2023-03-15T00:03:26.113Z,58.96
2023-03-15T00:06:33.813Z,59.81
2023-03-15T00:09:39.988Z,59.54
2023-03-15T00:12:44.593Z,62.72
2023-03-15T00:15:54.142Z,63.86
2023-03-15T00:19:00.582Z,62.89
2023-03-15T00:22:07.577Z,61.91
2023-03-15T00:25:14.510Z,61.24
2023-03-15T00:28:21.174Z,60.78
2023-03-15T00:31:28.485Z,60.44
2023-03-15T00:34:35.313Z,60.00
2023-03-15T00:37:41.764Z,59.79
2023-03-15T00:40:48.077Z,59.44
2023-03-15T00:43:54.816Z,59.82
2023-03-15T00:47:01.144Z,61.82
2023-03-15T00:50:08.530Z,64.83
2023-03-15T00:53:14.926Z,64.82
2023-03-15T00:56:24.454Z,64.27
2023-03-15T00:59:35.085Z,63.72
2023-03-15T01:02:41.782Z,63.16
2023-03-15T01:05:47.697Z,62.69
2023-03-15T01:08:56.152Z,61.75
2023-03-15T01:12:02.278Z,61.17
2023-03-15T01:15:12.444Z,60.43
2023-03-15T01:18:18.283Z,59.18
2023-03-15T01:21:25.187Z,58.69
2023-03-15T01:24:31.131Z,60.62
2023-03-15T01:27:37.186Z,60.76
2023-03-15T01:30:49.895Z,63.13
2023-03-15T01:33:55.965Z,63.47
2023-03-15T01:37:03.029Z,63.27
2023-03-15T01:40:13.330Z,62.83
2023-03-15T01:43:21.869Z,62.18
2023-03-15T01:46:34.399Z,60.93
2023-03-15T01:49:40.660Z,60.87
2023-03-15T01:52:47.083Z,60.83
2023-03-15T01:55:54.377Z,60.77
2023-03-15T01:59:02.745Z,61.07
2023-03-15T02:02:09.963Z,60.66
2023-03-15T02:05:20.465Z,60.61
2023-03-15T02:08:33.644Z,60.46
2023-03-15T02:11:39.727Z,60.69
2023-03-15T02:14:46.381Z,60.69
2023-03-15T02:17:52.701Z,60.80
2023-03-15T02:21:03.138Z,60.90
2023-03-15T02:24:22.846Z,60.48
2023-03-15T02:27:32.048Z,60.46
2023-03-15T02:30:38.251Z,60.19
2023-03-15T02:33:47.224Z,60.36
2023-03-15T02:36:54.218Z,60.29
2023-03-15T02:39:59.974Z,60.12
2023-03-15T02:43:12.719Z,60.13
2023-03-15T02:46:19.509Z,59.88
2023-03-15T02:49:29.272Z,59.72
2023-03-15T02:52:35.226Z,58.49
2023-03-15T02:55:41.257Z,57.50
2023-03-15T02:58:47.113Z,59.24
2023-03-15T03:01:53.071Z,59.70
2023-03-15T03:04:58.928Z,60.73
2023-03-15T03:08:04.884Z,62.21
2023-03-15T03:11:10.744Z,63.43
2023-03-15T03:14:16.609Z,62.78
2023-03-15T03:17:22.494Z,62.08
2023-03-15T03:20:28.420Z,61.61
2023-03-15T03:23:35.293Z,61.10
2023-03-15T03:26:41.151Z,61.16
2023-03-15T03:29:47.215Z,60.30
2023-03-15T03:32:53.628Z,60.26
2023-03-15T03:36:04.234Z,60.16
2023-03-15T03:39:10.178Z,60.14
2023-03-15T03:42:16.794Z,59.52
2023-03-15T03:45:22.640Z,57.83
2023-03-15T03:48:28.476Z,58.49
2023-03-15T03:51:35.372Z,59.89
2023-03-15T03:54:42.820Z,61.35
2023-03-15T03:57:48.590Z,62.99
2023-03-15T04:00:55.425Z,64.29
2023-03-15T04:04:01.261Z,63.53
2023-03-15T04:07:07.322Z,62.30
2023-03-15T04:10:15.888Z,61.75
2023-03-15T04:13:22.146Z,62.15
2023-03-15T04:16:27.980Z,61.80
2023-03-15T04:19:34.051Z,61.61
2023-03-15T04:22:39.981Z,61.27
2023-03-15T04:25:49.291Z,61.07
2023-03-15T04:28:56.091Z,60.36
2023-03-15T04:32:02.599Z,60.41
2023-03-15T04:35:09.972Z,60.67
2023-03-15T04:38:16.139Z,60.18
2023-03-15T04:41:22.057Z,58.98
2023-03-15T04:44:27.956Z,58.54
2023-03-15T04:47:33.716Z,60.10
2023-03-15T04:50:39.562Z,60.63
2023-03-15T04:53:45.459Z,63.03
2023-03-15T04:56:51.183Z,64.55
2023-03-15T04:59:57.749Z,63.45
2023-03-15T05:03:03.608Z,62.98
2023-03-15T05:06:09.743Z,62.56
2023-03-15T05:09:19.320Z,61.99
2023-03-15T05:12:25.684Z,61.72
2023-03-15T05:15:31.571Z,61.26
2023-03-15T05:18:37.496Z,60.50
2023-03-15T05:21:43.286Z,60.81
2023-03-15T05:24:49.098Z,60.72
2023-03-15T05:27:56.487Z,60.59
2023-03-15T05:31:03.481Z,60.61
2023-03-15T05:34:09.335Z,60.98
2023-03-15T05:37:15.118Z,61.02
2023-03-15T05:40:21.455Z,60.73
2023-03-15T05:43:25.784Z,60.64
2023-03-15T05:46:32.020Z,60.48
2023-03-15T05:49:38.210Z,60.35
2023-03-15T05:52:44.906Z,60.70
2023-03-15T05:55:50.632Z,60.47
2023-03-15T05:58:56.370Z,59.95
2023-03-15T06:02:02.101Z,59.65
2023-03-15T06:05:09.067Z,58.11
2023-03-15T06:08:14.888Z,58.02
2023-03-15T06:11:21.015Z,58.74
2023-03-15T06:14:27.007Z,59.69
2023-03-15T06:17:33.377Z,60.24
2023-03-15T06:20:37.952Z,62.26
2023-03-15T06:23:43.758Z,64.17
2023-03-15T06:26:49.616Z,63.27
2023-03-15T06:29:56.289Z,62.38
2023-03-15T06:33:02.925Z,61.13
2023-03-15T06:36:10.661Z,60.50
2023-03-15T06:39:16.770Z,60.16
2023-03-15T06:42:22.892Z,59.50
2023-03-15T06:45:30.632Z,57.86
2023-03-15T06:48:36.624Z,57.72
2023-03-15T06:51:45.231Z,58.80
2023-03-15T06:54:50.955Z,59.79
2023-03-15T06:57:56.782Z,59.65
2023-03-15T07:01:02.639Z,59.70
2023-03-15T07:04:09.648Z,60.24
2023-03-15T07:07:16.212Z,60.61
2023-03-15T07:10:22.475Z,62.23
2023-03-15T07:13:28.428Z,62.68
2023-03-15T07:16:34.210Z,60.97
2023-03-15T07:19:50.248Z,59.69
2023-03-15T07:23:01.563Z,57.84
2023-03-15T07:26:07.613Z,58.43
2023-03-15T07:29:13.681Z,59.85
2023-03-15T07:32:19.964Z,59.55
2023-03-15T07:35:24.316Z,61.20
2023-03-15T07:38:31.230Z,60.10
2023-03-15T07:41:37.008Z,62.51
2023-03-15T07:44:42.764Z,62.79
2023-03-15T07:47:48.721Z,62.12
2023-03-15T07:50:54.489Z,61.52
2023-03-15T07:54:00.440Z,60.65
2023-03-15T07:57:07.111Z,58.44
2023-03-15T08:00:15.300Z,57.76
2023-03-15T08:03:21.456Z,59.07
2023-03-15T08:06:27.340Z,60.26
2023-03-15T08:09:34.652Z,61.13
2023-03-15T08:12:43.024Z,63.36
2023-03-15T08:15:49.626Z,64.74
2023-03-15T08:18:55.477Z,63.69
2023-03-15T08:22:01.437Z,62.21
2023-03-15T08:25:09.450Z,61.35
2023-03-15T08:28:15.729Z,61.06
2023-03-15T08:31:21.760Z,60.23
2023-03-15T08:34:27.753Z,59.76
2023-03-15T08:37:33.488Z,57.27
2023-03-15T08:40:40.786Z,56.70
2023-03-15T08:43:46.734Z,57.72
2023-03-15T08:46:52.566Z,58.64
2023-03-15T08:49:58.450Z,58.98
2023-03-15T08:53:04.229Z,58.32
2023-03-15T08:56:10.729Z,59.46
2023-03-15T08:59:28.951Z,59.77
2023-03-15T09:02:37.671Z,59.89
2023-03-15T09:05:43.806Z,60.15
2023-03-15T09:08:49.654Z,59.83
2023-03-15T09:11:56.750Z,61.46
2023-03-15T09:15:02.605Z,60.50
2023-03-15T09:18:08.793Z,60.35
2023-03-15T09:21:14.623Z,60.32
2023-03-15T09:24:20.486Z,60.42
2023-03-15T09:27:26.443Z,60.65
2023-03-15T09:30:32.453Z,59.95
2023-03-15T09:33:38.359Z,60.39
2023-03-15T09:36:44.220Z,60.65
2023-03-15T09:39:50.081Z,60.92
2023-03-15T09:43:05.478Z,60.56
2023-03-15T09:46:25.462Z,60.24
2023-03-15T09:49:40.725Z,59.74
2023-03-15T09:52:50.372Z,59.71
2023-03-15T09:55:56.458Z,60.14
2023-03-15T09:59:03.462Z,60.81
2023-03-15T10:02:20.806Z,59.35
2023-03-15T10:05:36.318Z,60.37
2023-03-15T10:08:42.309Z,59.60
2023-03-15T10:11:58.592Z,59.85
2023-03-15T10:15:23.899Z,59.72
2023-03-15T10:18:40.203Z,59.96
2023-03-15T10:21:56.703Z,59.43
2023-03-15T10:25:06.493Z,59.97
2023-03-15T10:28:18.942Z,60.05
2023-03-15T10:31:41.037Z,60.54
2023-03-15T10:34:52.869Z,60.47
2023-03-15T10:37:58.984Z,60.64
2023-03-15T10:41:08.846Z,60.35
2023-03-15T10:44:19.615Z,59.88
2023-03-15T10:47:27.678Z,59.45
2023-03-15T10:50:35.319Z,59.24
2023-03-15T10:53:53.149Z,58.85
2023-03-15T10:57:03.821Z,58.65
2023-03-15T11:04:08.071Z,59.06
2023-03-15T11:07:14.413Z,58.39
2023-03-15T11:10:26.084Z,58.84
2023-03-15T11:13:33.927Z,57.22
2023-03-15T11:16:40.885Z,53.90
2023-03-15T11:19:53.103Z,55.70
2023-03-15T11:23:00.133Z,53.36
2023-03-15T11:26:06.367Z,55.87
2023-03-15T11:29:21.629Z,55.33
2023-03-15T11:32:31.101Z,56.19
2023-03-15T11:35:44.500Z,56.56
2023-03-15T11:38:54.164Z,56.96
2023-03-15T11:42:06.825Z,57.11
2023-03-15T11:45:19.373Z,56.27
2023-03-15T11:48:31.173Z,55.17
2023-03-15T11:51:38.672Z,56.46
2023-03-15T11:54:45.184Z,54.34
2023-03-15T11:57:52.238Z,54.30
2023-03-15T12:01:04.757Z,55.07
2023-03-15T12:04:51.001Z,55.22
2023-03-15T12:08:20.254Z,55.29
2023-03-15T12:11:45.452Z,55.20
2023-03-15T12:15:02.598Z,55.37
2023-03-15T12:18:14.938Z,54.39
2023-03-15T12:21:33.129Z,54.67
2023-03-15T12:24:41.076Z,51.56
2023-03-15T12:27:51.486Z,52.28
2023-03-15T12:31:02.077Z,53.48
2023-03-15T12:34:15.742Z,54.05
2023-03-15T12:37:25.610Z,52.90
2023-03-15T12:40:50.352Z,53.12
2023-03-15T12:44:16.172Z,53.47
2023-03-15T12:47:20.409Z,53.97
2023-03-15T12:50:52.540Z,53.78
2023-03-15T12:54:00.264Z,50.78
2023-03-15T12:57:07.327Z,50.75
2023-03-15T13:00:20.613Z,51.07
2023-03-15T13:03:28.744Z,52.48
2023-03-15T13:06:47.248Z,52.40
2023-03-15T13:10:09.385Z,52.78
2023-03-15T13:13:26.709Z,50.55
2023-03-15T13:16:39.141Z,50.22
2023-03-15T13:19:48.462Z,50.18
2023-03-15T13:23:04.862Z,50.90
2023-03-15T13:26:26.558Z,52.23
2023-03-15T13:29:34.303Z,51.32
2023-03-15T13:32:46.357Z,52.43
2023-03-15T13:35:58.339Z,51.90
2023-03-15T13:39:11.427Z,52.58
2023-03-15T13:42:23.968Z,51.47
2023-03-15T13:45:29.790Z,50.68
2023-03-15T13:48:37.560Z,51.63
2023-03-15T13:51:44.514Z,52.07
2023-03-15T13:54:53.317Z,51.94
2023-03-15T13:58:06.126Z,51.60
2023-03-15T14:01:15.579Z,51.17
2023-03-15T14:04:21.934Z,50.00
2023-03-15T14:07:30.802Z,49.69
2023-03-15T14:10:39.103Z,51.52
2023-03-15T14:13:56.084Z,51.13
2023-03-15T14:17:08.745Z,51.56
2023-03-15T14:20:19.860Z,51.57
2023-03-15T14:23:28.290Z,51.75
2023-03-15T14:26:34.454Z,52.83
2023-03-15T14:29:40.101Z,52.17
2023-03-15T14:32:55.705Z,52.53
2023-03-15T14:36:03.735Z,52.60
2023-03-15T14:39:20.927Z,52.48
2023-03-15T14:42:26.798Z,51.58
2023-03-15T14:45:34.406Z,52.23
2023-03-15T14:48:40.865Z,52.50
2023-03-15T14:51:47.465Z,53.27
2023-03-15T14:54:51.959Z,52.64
2023-03-15T14:57:57.919Z,52.38
2023-03-15T15:01:05.518Z,51.64
2023-03-15T15:04:13.531Z,51.01
2023-03-15T15:07:20.747Z,51.92
2023-03-15T15:10:27.288Z,51.20
2023-03-15T15:13:33.555Z,51.51
2023-03-15T15:16:57.514Z,52.27
2023-03-15T15:20:07.367Z,51.80
2023-03-15T15:23:17.128Z,52.42
2023-03-15T15:26:26.629Z,51.66
2023-03-15T15:29:32.441Z,51.40
2023-03-15T15:32:38.199Z,51.63
2023-03-15T15:35:44.580Z,52.04
2023-03-15T15:38:48.971Z,52.16
2023-03-15T15:41:53.164Z,52.30
2023-03-15T15:44:57.435Z,52.37
2023-03-15T15:48:05.939Z,52.61
2023-03-15T15:51:19.864Z,53.14
2023-03-15T15:54:26.340Z,53.24
2023-03-15T15:57:30.488Z,53.28
2023-03-15T16:00:34.785Z,53.46
2023-03-15T16:03:39.203Z,51.92
2023-03-15T16:06:43.960Z,52.49
2023-03-15T16:09:49.103Z,53.06
2023-03-15T16:12:54.634Z,53.68
2023-03-15T16:15:58.786Z,53.66
2023-03-15T16:19:03.364Z,53.36
2023-03-15T16:22:08.270Z,53.76
2023-03-15T16:25:15.921Z,54.15
2023-03-15T16:28:20.149Z,53.52
2023-03-15T16:31:24.474Z,53.55
2023-03-15T16:34:28.685Z,53.62
2023-03-15T16:37:33.320Z,54.04
2023-03-15T16:40:40.605Z,53.77
2023-03-15T16:43:47.255Z,53.65
2023-03-15T16:46:52.967Z,54.12
2023-03-15T16:49:57.429Z,53.97
2023-03-15T16:53:03.714Z,54.17
2023-03-15T16:56:11.060Z,54.05
2023-03-15T16:59:17.159Z,53.88
2023-03-15T17:02:22.536Z,54.04
2023-03-15T17:05:27.929Z,54.16
2023-03-15T17:08:32.931Z,54.83
2023-03-15T17:11:38.726Z,54.95
2023-03-15T17:14:43.324Z,54.98
2023-03-15T17:17:47.910Z,54.89
2023-03-15T17:20:52.663Z,55.34
2023-03-15T17:23:56.838Z,55.22
2023-03-15T17:27:02.175Z,55.29
2023-03-15T17:30:16.339Z,55.26
2023-03-15T17:33:20.865Z,55.39
2023-03-15T17:36:26.821Z,55.39
2023-03-15T17:39:31.443Z,55.37
2023-03-15T17:42:35.932Z,55.45
2023-03-15T17:45:40.355Z,55.56
2023-03-15T17:48:45.019Z,55.43
2023-03-15T17:51:49.433Z,55.74
2023-03-15T17:54:53.753Z,55.86
2023-03-15T17:57:58.591Z,56.17
2023-03-15T18:01:04.526Z,55.93
2023-03-15T18:04:11.347Z,55.98
2023-03-15T18:07:15.763Z,56.03
2023-03-15T18:10:21.162Z,56.24
2023-03-15T18:13:26.576Z,56.42
2023-03-15T18:16:31.847Z,56.50
2023-03-15T18:19:36.777Z,56.43
2023-03-15T18:22:41.764Z,56.47
2023-03-15T18:25:48.251Z,56.57
2023-03-15T18:28:53.166Z,56.72
2023-03-15T18:31:57.589Z,56.77
2023-03-15T18:35:01.811Z,56.84
2023-03-15T18:38:06.454Z,56.81
2023-03-15T18:41:14.115Z,56.78
2023-03-15T18:44:18.463Z,56.77
2023-03-15T18:47:23.084Z,56.77
2023-03-15T18:50:27.503Z,56.82
2023-03-15T18:53:31.929Z,56.89
2023-03-15T18:56:36.477Z,56.94
2023-03-15T18:59:41.393Z,57.01
2023-03-15T19:02:47.196Z,57.13
2023-03-15T19:05:51.573Z,57.22
2023-03-15T19:08:55.671Z,57.27
2023-03-15T19:12:00.184Z,57.29
2023-03-15T19:15:05.783Z,57.33
2023-03-15T19:18:10.080Z,57.65
2023-03-15T19:21:14.540Z,57.87
2023-03-15T19:24:18.840Z,58.09
2023-03-15T19:27:23.147Z,58.44
2023-03-15T19:30:27.700Z,58.64
2023-03-15T19:33:31.993Z,58.82
2023-03-15T19:36:36.116Z,59.06
2023-03-15T19:39:40.466Z,59.29
2023-03-15T19:42:44.737Z,59.43
2023-03-15T19:45:49.224Z,59.63
2023-03-15T19:48:53.492Z,59.72
2023-03-15T19:51:57.913Z,59.66
2023-03-15T19:55:02.237Z,59.55
2023-03-15T19:58:06.455Z,59.56
2023-03-15T20:01:11.525Z,59.61
2023-03-15T20:04:15.954Z,59.69
2023-03-15T20:07:20.174Z,59.86
2023-03-15T20:10:24.636Z,60.14
2023-03-15T20:13:29.081Z,60.45
2023-03-15T20:16:33.707Z,60.75
2023-03-15T20:19:38.247Z,61.05
2023-03-15T20:22:43.499Z,61.34
2023-03-15T20:25:49.690Z,61.47
2023-03-15T20:28:53.825Z,61.80
2023-03-15T20:31:58.145Z,62.07
2023-03-15T20:35:02.626Z,62.14
2023-03-15T20:38:08.330Z,62.74
2023-03-15T20:41:13.981Z,66.95
2023-03-15T20:44:18.095Z,68.79
2023-03-15T20:47:22.202Z,67.51
2023-03-15T20:50:26.463Z,65.91
2023-03-15T20:53:31.192Z,64.42
2023-03-15T20:56:35.511Z,63.30
2023-03-15T20:59:39.939Z,62.43
2023-03-15T21:02:44.155Z,61.88
2023-03-15T21:05:48.472Z,61.19
2023-03-15T21:08:52.699Z,61.01
2023-03-15T21:11:57.319Z,60.33
2023-03-15T21:15:02.499Z,60.06
2023-03-15T21:18:07.113Z,59.22
2023-03-15T21:21:11.392Z,57.10
2023-03-15T21:24:15.824Z,57.76
2023-03-15T21:27:20.414Z,58.67
2023-03-15T21:30:25.106Z,59.38
2023-03-15T21:33:31.059Z,59.81
2023-03-15T21:36:35.252Z,60.34
2023-03-15T21:39:39.469Z,60.62
2023-03-15T21:42:43.800Z,61.12
2023-03-15T21:45:48.141Z,61.47
2023-03-15T21:48:52.322Z,61.67
2023-03-15T21:51:56.545Z,61.95
2023-03-15T21:55:01.195Z,62.13
2023-03-15T21:58:05.883Z,62.34
2023-03-15T22:01:10.145Z,63.87
2023-03-15T22:04:14.357Z,68.55
2023-03-15T22:07:18.584Z,69.31
2023-03-15T22:10:23.447Z,68.43
2023-03-15T22:13:27.770Z,67.10
2023-03-15T22:16:33.438Z,65.97
2023-03-15T22:19:37.935Z,65.00
2023-03-15T22:22:42.051Z,64.37
2023-03-15T22:25:46.530Z,63.26
2023-03-15T22:28:51.679Z,62.60
2023-03-15T22:31:56.004Z,61.84
2023-03-15T22:35:00.223Z,60.77
2023-03-15T22:38:10.218Z,60.31
2023-03-15T22:41:14.899Z,60.72
2023-03-15T22:44:19.118Z,60.34
2023-03-15T22:47:23.466Z,59.90
2023-03-15T22:50:28.046Z,59.81
2023-03-15T22:53:32.499Z,59.93
2023-03-15T22:56:39.952Z,59.58
2023-03-15T22:59:45.536Z,57.61
2023-03-15T23:02:50.170Z,57.23
2023-03-15T23:05:54.726Z,57.59
2023-03-15T23:08:58.911Z,57.44
2023-03-15T23:12:03.130Z,57.59
2023-03-15T23:15:08.829Z,57.93
2023-03-15T23:18:14.763Z,58.27
2023-03-15T23:21:19.180Z,58.59
2023-03-15T23:24:24.751Z,58.64
2023-03-15T23:27:28.944Z,58.79
2023-03-15T23:30:35.745Z,58.77
2023-03-15T23:33:40.445Z,58.68
2023-03-15T23:36:45.414Z,58.93
2023-03-15T23:39:49.699Z,59.08
2023-03-15T23:42:59.136Z,59.20
2023-03-15T23:46:05.271Z,59.80
2023-03-15T23:49:10.598Z,59.62
2023-03-15T23:52:15.382Z,59.81
2023-03-15T23:55:20.010Z,60.00
2023-03-15T23:58:24.540Z,60.06
